sensor_id;sensor_type;location;lat;lon;timestamp;P1;durP1;ratioP1;P2;durP2;ratioP2
61383;SDS011;63511;49.346;8.798;2023-03-08T00:01:14;16.02;;;9.05;;
61383;SDS011;63511;49.346;8.798;2023-03-08T00:03:43;20.70;;;10.15;;
61383;SDS011;63511;49.346;8.798;2023-03-08T00:06:11;16.13;;;8.82;;
61383;SDS011;63511;49.346;8.798;2023-03-08T00:08:41;17.42;;;9.75;;
61383;SDS011;63511;49.346;8.798;2023-03-08T00:11:10;17.92;;;9.23;;
61383;SDS011;63511;49.346;8.798;2023-03-08T00:13:37;19.08;;;9.10;;
61383;SDS011;63511;49.346;8.798;2023-03-08T00:16:06;18.35;;;9.60;;
61383;SDS011;63511;49.346;8.798;2023-03-08T00:18:33;18.17;;;8.90;;
61383;SDS011;63511;49.346;8.798;2023-03-08T00:21:03;17.95;;;9.18;;
61383;SDS011;63511;49.346;8.798;2023-03-08T00:23:30;15.13;;;8.52;;
61383;SDS011;63511;49.346;8.798;2023-03-08T00:25:57;19.08;;;8.57;;
61383;SDS011;63511;49.346;8.798;2023-03-08T00:28:24;16.98;;;8.48;;
61383;SDS011;63511;49.346;8.798;2023-03-08T00:30:54;17.98;;;7.63;;
61383;SDS011;63511;49.346;8.798;2023-03-08T00:33:21;18.65;;;9.77;;
61383;SDS011;63511;49.346;8.798;2023-03-08T00:35:53;17.05;;;9.55;;
61383;SDS011;63511;49.346;8.798;2023-03-08T00:38:22;18.67;;;8.60;;
61383;SDS011;63511;49.346;8.798;2023-03-08T00:40:49;21.17;;;9.38;;
61383;SDS011;63511;49.346;8.798;2023-03-08T00:43:15;17.58;;;8.60;;
61383;SDS011;63511;49.346;8.798;2023-03-08T00:45:42;22.45;;;9.05;;
61383;SDS011;63511;49.346;8.798;2023-03-08T00:48:08;19.60;;;7.90;;
61383;SDS011;63511;49.346;8.798;2023-03-08T00:50:38;14.25;;;8.25;;
61383;SDS011;63511;49.346;8.798;2023-03-08T00:53:04;20.83;;;9.40;;
61383;SDS011;63511;49.346;8.798;2023-03-08T00:55:33;19.40;;;9.43;;
61383;SDS011;63511;49.346;8.798;2023-03-08T00:58:02;17.95;;;9.82;;
61383;SDS011;63511;49.346;8.798;2023-03-08T01:00:29;20.88;;;9.77;;
61383;SDS011;63511;49.346;8.798;2023-03-08T01:02:56;17.88;;;9.02;;
61383;SDS011;63511;49.346;8.798;2023-03-08T01:05:23;20.33;;;8.40;;
61383;SDS011;63511;49.346;8.798;2023-03-08T01:07:49;23.88;;;8.82;;
61383;SDS011;63511;49.346;8.798;2023-03-08T01:10:16;17.58;;;7.93;;
61383;SDS011;63511;49.346;8.798;2023-03-08T01:12:44;16.40;;;8.80;;
61383;SDS011;63511;49.346;8.798;2023-03-08T01:15:11;22.73;;;9.55;;
61383;SDS011;63511;49.346;8.798;2023-03-08T01:17:37;17.00;;;8.48;;
61383;SDS011;63511;49.346;8.798;2023-03-08T01:20:04;19.25;;;9.73;;
61383;SDS011;63511;49.346;8.798;2023-03-08T01:22:32;18.23;;;9.70;;
61383;SDS011;63511;49.346;8.798;2023-03-08T01:24:59;20.85;;;9.57;;
61383;SDS011;63511;49.346;8.798;2023-03-08T01:27:25;15.85;;;8.43;;
61383;SDS011;63511;49.346;8.798;2023-03-08T01:29:53;19.10;;;8.50;;
61383;SDS011;63511;49.346;8.798;2023-03-08T01:32:19;18.15;;;9.18;;
61383;SDS011;63511;49.346;8.798;2023-03-08T01:34:46;18.13;;;9.00;;
61383;SDS011;63511;49.346;8.798;2023-03-08T01:37:13;17.83;;;8.95;;
61383;SDS011;63511;49.346;8.798;2023-03-08T01:39:39;16.73;;;8.73;;
61383;SDS011;63511;49.346;8.798;2023-03-08T01:42:06;20.88;;;8.80;;
61383;SDS011;63511;49.346;8.798;2023-03-08T01:44:47;15.43;;;9.18;;
61383;SDS011;63511;49.346;8.798;2023-03-08T01:47:20;21.60;;;10.00;;
61383;SDS011;63511;49.346;8.798;2023-03-08T01:49:51;25.35;;;9.68;;
61383;SDS011;63511;49.346;8.798;2023-03-08T01:52:20;21.92;;;10.43;;
61383;SDS011;63511;49.346;8.798;2023-03-08T01:54:50;19.38;;;9.32;;
61383;SDS011;63511;49.346;8.798;2023-03-08T01:57:22;19.75;;;10.07;;
61383;SDS011;63511;49.346;8.798;2023-03-08T01:59:54;19.92;;;9.60;;
61383;SDS011;63511;49.346;8.798;2023-03-08T02:02:24;20.40;;;9.07;;
61383;SDS011;63511;49.346;8.798;2023-03-08T02:04:55;23.45;;;11.10;;
61383;SDS011;63511;49.346;8.798;2023-03-08T02:07:22;21.55;;;9.75;;
61383;SDS011;63511;49.346;8.798;2023-03-08T02:09:48;18.67;;;9.95;;
61383;SDS011;63511;49.346;8.798;2023-03-08T02:12:15;18.13;;;8.90;;
61383;SDS011;63511;49.346;8.798;2023-03-08T02:14:42;19.95;;;8.68;;
61383;SDS011;63511;49.346;8.798;2023-03-08T02:17:11;20.05;;;9.77;;
61383;SDS011;63511;49.346;8.798;2023-03-08T02:19:40;19.55;;;9.55;;
61383;SDS011;63511;49.346;8.798;2023-03-08T02:22:11;24.48;;;9.55;;
61383;SDS011;63511;49.346;8.798;2023-03-08T02:24:40;21.77;;;9.50;;
61383;SDS011;63511;49.346;8.798;2023-03-08T02:27:08;20.02;;;10.40;;
61383;SDS011;63511;49.346;8.798;2023-03-08T02:32:06;19.30;;;9.32;;
61383;SDS011;63511;49.346;8.798;2023-03-08T02:34:33;20.15;;;9.63;;
61383;SDS011;63511;49.346;8.798;2023-03-08T02:37:00;19.67;;;10.27;;
61383;SDS011;63511;49.346;8.798;2023-03-08T02:39:27;18.70;;;9.57;;
61383;SDS011;63511;49.346;8.798;2023-03-08T02:41:55;25.70;;;10.25;;
61383;SDS011;63511;49.346;8.798;2023-03-08T02:44:21;19.05;;;10.05;;
61383;SDS011;63511;49.346;8.798;2023-03-08T02:46:48;24.25;;;9.38;;
61383;SDS011;63511;49.346;8.798;2023-03-08T02:49:15;15.88;;;9.07;;
61383;SDS011;63511;49.346;8.798;2023-03-08T02:51:41;19.98;;;9.23;;
61383;SDS011;63511;49.346;8.798;2023-03-08T02:54:08;19.98;;;9.77;;
61383;SDS011;63511;49.346;8.798;2023-03-08T02:56:35;20.50;;;10.15;;
61383;SDS011;63511;49.346;8.798;2023-03-08T02:59:03;21.10;;;9.00;;
61383;SDS011;63511;49.346;8.798;2023-03-08T03:01:30;24.02;;;10.48;;
61383;SDS011;63511;49.346;8.798;2023-03-08T03:03:56;17.27;;;9.45;;
61383;SDS011;63511;49.346;8.798;2023-03-08T03:06:23;24.35;;;11.02;;
61383;SDS011;63511;49.346;8.798;2023-03-08T03:08:50;19.83;;;9.93;;
61383;SDS011;63511;49.346;8.798;2023-03-08T03:11:17;22.92;;;10.25;;
61383;SDS011;63511;49.346;8.798;2023-03-08T03:13:45;20.73;;;9.65;;
61383;SDS011;63511;49.346;8.798;2023-03-08T03:16:14;23.38;;;10.48;;
61383;SDS011;63511;49.346;8.798;2023-03-08T03:18:43;16.38;;;8.30;;
61383;SDS011;63511;49.346;8.798;2023-03-08T03:21:11;24.00;;;9.70;;
61383;SDS011;63511;49.346;8.798;2023-03-08T03:23:38;19.48;;;10.68;;
61383;SDS011;63511;49.346;8.798;2023-03-08T03:26:07;20.27;;;9.95;;
61383;SDS011;63511;49.346;8.798;2023-03-08T03:28:34;22.45;;;11.18;;
61383;SDS011;63511;49.346;8.798;2023-03-08T03:31:01;20.77;;;9.88;;
61383;SDS011;63511;49.346;8.798;2023-03-08T03:33:33;21.60;;;10.85;;
61383;SDS011;63511;49.346;8.798;2023-03-08T03:36:00;23.02;;;10.40;;
61383;SDS011;63511;49.346;8.798;2023-03-08T03:38:29;19.33;;;9.55;;
61383;SDS011;63511;49.346;8.798;2023-03-08T03:40:59;21.00;;;9.70;;
61383;SDS011;63511;49.346;8.798;2023-03-08T03:43:26;20.10;;;9.65;;
61383;SDS011;63511;49.346;8.798;2023-03-08T03:45:54;25.08;;;10.68;;
61383;SDS011;63511;49.346;8.798;2023-03-08T03:48:21;19.23;;;10.50;;
61383;SDS011;63511;49.346;8.798;2023-03-08T03:50:53;21.25;;;10.38;;
61383;SDS011;63511;49.346;8.798;2023-03-08T03:53:21;23.95;;;10.23;;
61383;SDS011;63511;49.346;8.798;2023-03-08T03:55:47;23.50;;;10.10;;
61383;SDS011;63511;49.346;8.798;2023-03-08T03:58:14;24.05;;;10.70;;
61383;SDS011;63511;49.346;8.798;2023-03-08T04:00:41;22.15;;;10.20;;
61383;SDS011;63511;49.346;8.798;2023-03-08T04:03:07;23.23;;;10.90;;
61383;SDS011;63511;49.346;8.798;2023-03-08T04:05:34;22.98;;;11.48;;
61383;SDS011;63511;49.346;8.798;2023-03-08T04:08:02;19.90;;;9.43;;
61383;SDS011;63511;49.346;8.798;2023-03-08T04:10:30;25.65;;;11.07;;
61383;SDS011;63511;49.346;8.798;2023-03-08T04:12:57;16.83;;;9.85;;
61383;SDS011;63511;49.346;8.798;2023-03-08T04:15:23;22.50;;;11.05;;
61383;SDS011;63511;49.346;8.798;2023-03-08T04:17:50;22.55;;;11.88;;
61383;SDS011;63511;49.346;8.798;2023-03-08T04:20:17;22.23;;;11.20;;
61383;SDS011;63511;49.346;8.798;2023-03-08T04:22:43;20.15;;;10.98;;
61383;SDS011;63511;49.346;8.798;2023-03-08T04:25:11;23.30;;;11.25;;
61383;SDS011;63511;49.346;8.798;2023-03-08T04:27:38;25.65;;;12.05;;
61383;SDS011;63511;49.346;8.798;2023-03-08T04:30:04;22.05;;;10.50;;
61383;SDS011;63511;49.346;8.798;2023-03-08T04:32:32;20.60;;;10.57;;
61383;SDS011;63511;49.346;8.798;2023-03-08T04:34:59;23.02;;;9.90;;
61383;SDS011;63511;49.346;8.798;2023-03-08T04:37:25;25.77;;;11.27;;
61383;SDS011;63511;49.346;8.798;2023-03-08T04:39:52;21.88;;;11.27;;
61383;SDS011;63511;49.346;8.798;2023-03-08T04:42:19;20.73;;;11.05;;
61383;SDS011;63511;49.346;8.798;2023-03-08T04:44:46;23.73;;;12.30;;
61383;SDS011;63511;49.346;8.798;2023-03-08T04:47:13;19.33;;;11.52;;
61383;SDS011;63511;49.346;8.798;2023-03-08T04:49:39;21.67;;;10.73;;
61383;SDS011;63511;49.346;8.798;2023-03-08T04:52:06;25.92;;;11.55;;
61383;SDS011;63511;49.346;8.798;2023-03-08T04:54:32;23.25;;;10.70;;
61383;SDS011;63511;49.346;8.798;2023-03-08T04:56:59;22.75;;;11.75;;
61383;SDS011;63511;49.346;8.798;2023-03-08T04:59:27;24.15;;;10.52;;
61383;SDS011;63511;49.346;8.798;2023-03-08T05:01:53;18.60;;;10.07;;
61383;SDS011;63511;49.346;8.798;2023-03-08T05:04:20;22.90;;;10.30;;
61383;SDS011;63511;49.346;8.798;2023-03-08T05:06:46;21.85;;;10.63;;
61383;SDS011;63511;49.346;8.798;2023-03-08T05:09:13;23.70;;;11.15;;
61383;SDS011;63511;49.346;8.798;2023-03-08T05:11:39;21.85;;;10.35;;
61383;SDS011;63511;49.346;8.798;2023-03-08T05:14:06;19.35;;;9.73;;
61383;SDS011;63511;49.346;8.798;2023-03-08T05:16:36;21.58;;;10.32;;
61383;SDS011;63511;49.346;8.798;2023-03-08T05:19:02;26.63;;;11.10;;
61383;SDS011;63511;49.346;8.798;2023-03-08T05:21:29;22.08;;;10.82;;
61383;SDS011;63511;49.346;8.798;2023-03-08T05:23:57;24.85;;;11.65;;
61383;SDS011;63511;49.346;8.798;2023-03-08T05:26:23;19.00;;;10.25;;
61383;SDS011;63511;49.346;8.798;2023-03-08T05:28:50;24.17;;;11.80;;
61383;SDS011;63511;49.346;8.798;2023-03-08T05:31:17;26.40;;;11.15;;
61383;SDS011;63511;49.346;8.798;2023-03-08T05:33:48;19.50;;;11.85;;
61383;SDS011;63511;49.346;8.798;2023-03-08T05:36:16;22.63;;;11.02;;
61383;SDS011;63511;49.346;8.798;2023-03-08T05:38:43;20.60;;;10.35;;
61383;SDS011;63511;49.346;8.798;2023-03-08T05:41:11;21.77;;;11.45;;
61383;SDS011;63511;49.346;8.798;2023-03-08T05:43:40;19.55;;;10.70;;
61383;SDS011;63511;49.346;8.798;2023-03-08T05:46:07;20.02;;;10.55;;
61383;SDS011;63511;49.346;8.798;2023-03-08T05:48:36;24.00;;;10.32;;
61383;SDS011;63511;49.346;8.798;2023-03-08T05:51:05;24.17;;;11.25;;
61383;SDS011;63511;49.346;8.798;2023-03-08T05:53:37;23.42;;;11.65;;
61383;SDS011;63511;49.346;8.798;2023-03-08T05:56:08;22.08;;;10.57;;
61383;SDS011;63511;49.346;8.798;2023-03-08T05:58:36;22.48;;;12.38;;
61383;SDS011;63511;49.346;8.798;2023-03-08T06:01:09;22.30;;;11.70;;
61383;SDS011;63511;49.346;8.798;2023-03-08T06:03:37;29.13;;;11.63;;
61383;SDS011;63511;49.346;8.798;2023-03-08T06:06:05;27.10;;;13.23;;
61383;SDS011;63511;49.346;8.798;2023-03-08T06:08:32;30.08;;;12.88;;
61383;SDS011;63511;49.346;8.798;2023-03-08T06:10:59;24.95;;;12.35;;
61383;SDS011;63511;49.346;8.798;2023-03-08T06:13:26;28.30;;;11.80;;
61383;SDS011;63511;49.346;8.798;2023-03-08T06:15:53;25.88;;;13.57;;
61383;SDS011;63511;49.346;8.798;2023-03-08T06:18:20;27.50;;;13.00;;
61383;SDS011;63511;49.346;8.798;2023-03-08T06:20:54;28.23;;;13.38;;
61383;SDS011;63511;49.346;8.798;2023-03-08T06:23:26;20.85;;;11.60;;
61383;SDS011;63511;49.346;8.798;2023-03-08T06:25:54;24.48;;;11.15;;
61383;SDS011;63511;49.346;8.798;2023-03-08T06:28:20;21.90;;;12.25;;
61383;SDS011;63511;49.346;8.798;2023-03-08T06:30:48;25.63;;;11.95;;
61383;SDS011;63511;49.346;8.798;2023-03-08T06:33:15;28.58;;;12.68;;
61383;SDS011;63511;49.346;8.798;2023-03-08T06:35:42;28.08;;;13.50;;
61383;SDS011;63511;49.346;8.798;2023-03-08T06:38:10;30.45;;;13.18;;
61383;SDS011;63511;49.346;8.798;2023-03-08T06:40:37;27.77;;;12.63;;
61383;SDS011;63511;49.346;8.798;2023-03-08T06:43:04;38.50;;;13.07;;
61383;SDS011;63511;49.346;8.798;2023-03-08T06:45:30;23.77;;;12.40;;
61383;SDS011;63511;49.346;8.798;2023-03-08T06:47:57;30.88;;;12.95;;
61383;SDS011;63511;49.346;8.798;2023-03-08T06:50:24;26.90;;;12.90;;
61383;SDS011;63511;49.346;8.798;2023-03-08T06:52:51;29.60;;;12.65;;
61383;SDS011;63511;49.346;8.798;2023-03-08T06:55:17;28.85;;;12.02;;
61383;SDS011;63511;49.346;8.798;2023-03-08T06:57:45;24.60;;;12.65;;
61383;SDS011;63511;49.346;8.798;2023-03-08T07:00:12;24.05;;;12.38;;
61383;SDS011;63511;49.346;8.798;2023-03-08T07:02:40;26.02;;;12.82;;
61383;SDS011;63511;49.346;8.798;2023-03-08T07:05:07;26.65;;;12.43;;
61383;SDS011;63511;49.346;8.798;2023-03-08T07:07:34;34.55;;;13.75;;
61383;SDS011;63511;49.346;8.798;2023-03-08T07:10:02;28.80;;;12.73;;
61383;SDS011;63511;49.346;8.798;2023-03-08T07:12:29;25.42;;;11.82;;
61383;SDS011;63511;49.346;8.798;2023-03-08T07:14:57;28.73;;;12.70;;
61383;SDS011;63511;49.346;8.798;2023-03-08T07:17:24;23.23;;;12.90;;
61383;SDS011;63511;49.346;8.798;2023-03-08T07:19:51;24.20;;;12.25;;
61383;SDS011;63511;49.346;8.798;2023-03-08T07:22:17;26.90;;;13.48;;
61383;SDS011;63511;49.346;8.798;2023-03-08T07:24:45;28.00;;;13.18;;
61383;SDS011;63511;49.346;8.798;2023-03-08T07:27:12;24.52;;;11.93;;
61383;SDS011;63511;49.346;8.798;2023-03-08T07:29:39;30.15;;;13.02;;
61383;SDS011;63511;49.346;8.798;2023-03-08T07:32:07;21.98;;;11.93;;
61383;SDS011;63511;49.346;8.798;2023-03-08T07:34:34;38.33;;;16.90;;
61383;SDS011;63511;49.346;8.798;2023-03-08T07:37:00;29.33;;;13.45;;
61383;SDS011;63511;49.346;8.798;2023-03-08T07:39:27;26.23;;;11.98;;
61383;SDS011;63511;49.346;8.798;2023-03-08T08:06:25;32.03;;;14.10;;
61383;SDS011;63511;49.346;8.798;2023-03-08T08:19:37;31.03;;;15.40;;
61383;SDS011;63511;49.346;8.798;2023-03-08T08:22:04;29.95;;;14.18;;
61383;SDS011;63511;49.346;8.798;2023-03-08T08:24:31;33.90;;;16.55;;
61383;SDS011;63511;49.346;8.798;2023-03-08T08:26:57;37.20;;;16.52;;
61383;SDS011;63511;49.346;8.798;2023-03-08T08:29:24;27.80;;;14.80;;
61383;SDS011;63511;49.346;8.798;2023-03-08T08:31:55;33.38;;;15.20;;
61383;SDS011;63511;49.346;8.798;2023-03-08T08:34:22;30.63;;;14.80;;
61383;SDS011;63511;49.346;8.798;2023-03-08T08:36:51;25.48;;;14.30;;
61383;SDS011;63511;49.346;8.798;2023-03-08T08:39:17;31.52;;;14.88;;
61383;SDS011;63511;49.346;8.798;2023-03-08T08:41:44;30.38;;;15.90;;
61383;SDS011;63511;49.346;8.798;2023-03-08T08:44:10;31.85;;;13.98;;
61383;SDS011;63511;49.346;8.798;2023-03-08T08:46:37;29.65;;;13.85;;
61383;SDS011;63511;49.346;8.798;2023-03-08T08:49:03;28.58;;;13.55;;
61383;SDS011;63511;49.346;8.798;2023-03-08T08:51:30;35.75;;;15.27;;
61383;SDS011;63511;49.346;8.798;2023-03-08T08:54:00;38.75;;;18.38;;
61383;SDS011;63511;49.346;8.798;2023-03-08T08:56:28;31.58;;;14.80;;
61383;SDS011;63511;49.346;8.798;2023-03-08T09:01:30;32.63;;;15.07;;
61383;SDS011;63511;49.346;8.798;2023-03-08T09:03:59;33.80;;;16.98;;
61383;SDS011;63511;49.346;8.798;2023-03-08T09:06:26;32.08;;;14.63;;
61383;SDS011;63511;49.346;8.798;2023-03-08T09:08:55;28.30;;;15.13;;
61383;SDS011;63511;49.346;8.798;2023-03-08T09:11:25;37.72;;;18.80;;
61383;SDS011;63511;49.346;8.798;2023-03-08T09:13:53;30.63;;;15.05;;
61383;SDS011;63511;49.346;8.798;2023-03-08T09:16:20;36.00;;;14.73;;
61383;SDS011;63511;49.346;8.798;2023-03-08T09:18:48;31.35;;;14.98;;
61383;SDS011;63511;49.346;8.798;2023-03-08T09:21:15;34.70;;;15.15;;
61383;SDS011;63511;49.346;8.798;2023-03-08T09:23:43;31.73;;;15.27;;
61383;SDS011;63511;49.346;8.798;2023-03-08T09:26:10;35.10;;;15.98;;
61383;SDS011;63511;49.346;8.798;2023-03-08T09:28:38;37.72;;;17.48;;
61383;SDS011;63511;49.346;8.798;2023-03-08T09:31:05;30.77;;;16.83;;
61383;SDS011;63511;49.346;8.798;2023-03-08T09:33:37;36.08;;;17.52;;
61383;SDS011;63511;49.346;8.798;2023-03-08T09:36:04;39.00;;;16.30;;
61383;SDS011;63511;49.346;8.798;2023-03-08T09:38:31;40.28;;;18.45;;
61383;SDS011;63511;49.346;8.798;2023-03-08T09:40:59;38.45;;;17.42;;
61383;SDS011;63511;49.346;8.798;2023-03-08T09:43:42;37.63;;;17.33;;
61383;SDS011;63511;49.346;8.798;2023-03-08T09:46:12;32.33;;;17.10;;
61383;SDS011;63511;49.346;8.798;2023-03-08T09:48:43;35.38;;;16.02;;
61383;SDS011;63511;49.346;8.798;2023-03-08T09:51:15;31.63;;;16.88;;
61383;SDS011;63511;49.346;8.798;2023-03-08T09:53:47;32.67;;;17.02;;
61383;SDS011;63511;49.346;8.798;2023-03-08T09:56:19;31.15;;;15.60;;
61383;SDS011;63511;49.346;8.798;2023-03-08T09:58:53;32.50;;;15.48;;
61383;SDS011;63511;49.346;8.798;2023-03-08T10:01:31;30.92;;;15.93;;
61383;SDS011;63511;49.346;8.798;2023-03-08T10:04:14;32.95;;;16.92;;
61383;SDS011;63511;49.346;8.798;2023-03-08T10:07:11;28.80;;;16.15;;
61383;SDS011;63511;49.346;8.798;2023-03-08T10:09:46;33.67;;;15.43;;
61383;SDS011;63511;49.346;8.798;2023-03-08T10:12:19;31.35;;;16.25;;
61383;SDS011;63511;49.346;8.798;2023-03-08T10:14:56;36.60;;;17.95;;
61383;SDS011;63511;49.346;8.798;2023-03-08T10:17:27;38.00;;;17.55;;
61383;SDS011;63511;49.346;8.798;2023-03-08T10:20:03;32.28;;;17.75;;
61383;SDS011;63511;49.346;8.798;2023-03-08T10:22:33;35.40;;;18.25;;
61383;SDS011;63511;49.346;8.798;2023-03-08T10:25:04;33.45;;;17.38;;
61383;SDS011;63511;49.346;8.798;2023-03-08T10:27:44;33.75;;;18.08;;
61383;SDS011;63511;49.346;8.798;2023-03-08T10:30:18;36.25;;;18.30;;
61383;SDS011;63511;49.346;8.798;2023-03-08T10:32:49;38.25;;;18.73;;
61383;SDS011;63511;49.346;8.798;2023-03-08T10:35:29;35.22;;;17.23;;
61383;SDS011;63511;49.346;8.798;2023-03-08T10:37:57;29.20;;;15.05;;
61383;SDS011;63511;49.346;8.798;2023-03-08T10:40:23;33.00;;;16.38;;
61383;SDS011;63511;49.346;8.798;2023-03-08T10:42:51;29.15;;;15.93;;
61383;SDS011;63511;49.346;8.798;2023-03-08T10:45:23;29.08;;;15.85;;
61383;SDS011;63511;49.346;8.798;2023-03-08T10:47:54;30.48;;;16.13;;
61383;SDS011;63511;49.346;8.798;2023-03-08T10:50:23;27.58;;;15.65;;
61383;SDS011;63511;49.346;8.798;2023-03-08T10:52:51;32.55;;;15.20;;
61383;SDS011;63511;49.346;8.798;2023-03-08T10:55:18;41.47;;;16.02;;
61383;SDS011;63511;49.346;8.798;2023-03-08T10:57:50;30.30;;;16.10;;
61383;SDS011;63511;49.346;8.798;2023-03-08T11:00:41;32.92;;;16.70;;
61383;SDS011;63511;49.346;8.798;2023-03-08T11:03:13;34.80;;;17.13;;
61383;SDS011;63511;49.346;8.798;2023-03-08T11:05:51;32.22;;;16.23;;
61383;SDS011;63511;49.346;8.798;2023-03-08T11:08:20;34.90;;;17.27;;
61383;SDS011;63511;49.346;8.798;2023-03-08T11:10:58;34.15;;;18.25;;
61383;SDS011;63511;49.346;8.798;2023-03-08T11:13:29;40.65;;;19.15;;
61383;SDS011;63511;49.346;8.798;2023-03-08T11:16:01;36.25;;;19.35;;
61383;SDS011;63511;49.346;8.798;2023-03-08T11:18:39;41.75;;;18.45;;
61383;SDS011;63511;49.346;8.798;2023-03-08T11:21:17;36.00;;;17.73;;
61383;SDS011;63511;49.346;8.798;2023-03-08T11:23:52;40.15;;;18.48;;
61383;SDS011;63511;49.346;8.798;2023-03-08T11:26:28;45.15;;;19.88;;
61383;SDS011;63511;49.346;8.798;2023-03-08T11:29:09;37.85;;;17.38;;
61383;SDS011;63511;49.346;8.798;2023-03-08T11:31:52;36.00;;;17.38;;
61383;SDS011;63511;49.346;8.798;2023-03-08T11:37:30;33.67;;;16.60;;
61383;SDS011;63511;49.346;8.798;2023-03-08T11:40:12;33.22;;;17.20;;
61383;SDS011;63511;49.346;8.798;2023-03-08T11:42:48;32.95;;;17.65;;
61383;SDS011;63511;49.346;8.798;2023-03-08T11:45:30;33.92;;;16.92;;
61383;SDS011;63511;49.346;8.798;2023-03-08T11:48:15;31.80;;;17.27;;
61383;SDS011;63511;49.346;8.798;2023-03-08T11:53:27;27.92;;;15.65;;
61383;SDS011;63511;49.346;8.798;2023-03-08T11:56:08;33.25;;;16.63;;
61383;SDS011;63511;49.346;8.798;2023-03-08T11:58:56;34.22;;;15.85;;
61383;SDS011;63511;49.346;8.798;2023-03-08T12:01:27;29.42;;;16.35;;
61383;SDS011;63511;49.346;8.798;2023-03-08T12:04:02;38.05;;;15.95;;
61383;SDS011;63511;49.346;8.798;2023-03-08T12:06:36;37.58;;;18.05;;
61383;SDS011;63511;49.346;8.798;2023-03-08T12:38:28;34.97;;;16.67;;
61383;SDS011;63511;49.346;8.798;2023-03-08T12:52:39;38.05;;;20.00;;
61383;SDS011;63511;49.346;8.798;2023-03-08T13:08:49;37.28;;;20.38;;
61383;SDS011;63511;49.346;8.798;2023-03-08T13:11:50;42.88;;;21.73;;
61383;SDS011;63511;49.346;8.798;2023-03-08T13:14:44;35.63;;;19.05;;
61383;SDS011;63511;49.346;8.798;2023-03-08T13:17:28;39.00;;;18.98;;
61383;SDS011;63511;49.346;8.798;2023-03-08T13:19:59;36.33;;;18.38;;
61383;SDS011;63511;49.346;8.798;2023-03-08T13:22:33;40.70;;;19.55;;
61383;SDS011;63511;49.346;8.798;2023-03-08T13:25:04;40.25;;;21.02;;
61383;SDS011;63511;49.346;8.798;2023-03-08T13:27:36;39.65;;;20.58;;
61383;SDS011;63511;49.346;8.798;2023-03-08T13:30:23;35.15;;;19.15;;
61383;SDS011;63511;49.346;8.798;2023-03-08T13:32:53;38.42;;;19.98;;
61383;SDS011;63511;49.346;8.798;2023-03-08T13:35:20;40.28;;;20.85;;
61383;SDS011;63511;49.346;8.798;2023-03-08T13:37:51;43.30;;;22.17;;
61383;SDS011;63511;49.346;8.798;2023-03-08T13:40:19;68.30;;;26.85;;
61383;SDS011;63511;49.346;8.798;2023-03-08T13:42:52;42.45;;;21.25;;
61383;SDS011;63511;49.346;8.798;2023-03-08T13:45:23;37.03;;;19.23;;
61383;SDS011;63511;49.346;8.798;2023-03-08T13:47:50;41.70;;;19.77;;
61383;SDS011;63511;49.346;8.798;2023-03-08T13:50:19;43.00;;;20.73;;
61383;SDS011;63511;49.346;8.798;2023-03-08T13:52:48;39.97;;;22.13;;
61383;SDS011;63511;49.346;8.798;2023-03-08T13:55:17;37.63;;;20.98;;
61383;SDS011;63511;49.346;8.798;2023-03-08T13:57:48;42.50;;;21.85;;
61383;SDS011;63511;49.346;8.798;2023-03-08T14:00:28;47.70;;;25.00;;
61383;SDS011;63511;49.346;8.798;2023-03-08T14:02:56;55.67;;;29.02;;
61383;SDS011;63511;49.346;8.798;2023-03-08T14:05:24;55.97;;;25.80;;
61383;SDS011;63511;49.346;8.798;2023-03-08T14:07:58;54.55;;;27.30;;
61383;SDS011;63511;49.346;8.798;2023-03-08T14:10:35;49.03;;;24.08;;
61383;SDS011;63511;49.346;8.798;2023-03-08T14:13:05;56.20;;;27.45;;
61383;SDS011;63511;49.346;8.798;2023-03-08T14:15:46;61.00;;;31.42;;
61383;SDS011;63511;49.346;8.798;2023-03-08T14:18:24;63.42;;;32.80;;
61383;SDS011;63511;49.346;8.798;2023-03-08T14:20:58;62.13;;;30.55;;
61383;SDS011;63511;49.346;8.798;2023-03-08T14:23:30;56.95;;;27.90;;
61383;SDS011;63511;49.346;8.798;2023-03-08T14:26:00;68.70;;;33.28;;
61383;SDS011;63511;49.346;8.798;2023-03-08T14:28:34;90.70;;;43.92;;
61383;SDS011;63511;49.346;8.798;2023-03-08T14:31:20;84.47;;;40.83;;
61383;SDS011;63511;49.346;8.798;2023-03-08T14:33:53;78.20;;;39.60;;
61383;SDS011;63511;49.346;8.798;2023-03-08T14:36:21;74.53;;;37.30;;
61383;SDS011;63511;49.346;8.798;2023-03-08T14:38:48;69.88;;;36.88;;
61383;SDS011;63511;49.346;8.798;2023-03-08T14:41:15;82.72;;;41.08;;
61383;SDS011;63511;49.346;8.798;2023-03-08T14:43:46;86.15;;;41.13;;
61383;SDS011;63511;49.346;8.798;2023-03-08T14:46:16;75.38;;;36.03;;
61383;SDS011;63511;49.346;8.798;2023-03-08T14:48:43;79.10;;;35.80;;
61383;SDS011;63511;49.346;8.798;2023-03-08T14:51:23;71.90;;;35.42;;
61383;SDS011;63511;49.346;8.798;2023-03-08T14:53:56;63.50;;;33.30;;
61383;SDS011;63511;49.346;8.798;2023-03-08T14:56:24;74.85;;;34.10;;
61383;SDS011;63511;49.346;8.798;2023-03-08T14:58:50;69.53;;;34.05;;
61383;SDS011;63511;49.346;8.798;2023-03-08T15:01:23;63.15;;;30.98;;
61383;SDS011;63511;49.346;8.798;2023-03-08T15:03:51;54.25;;;29.80;;
61383;SDS011;63511;49.346;8.798;2023-03-08T15:06:19;52.13;;;29.60;;
61383;SDS011;63511;49.346;8.798;2023-03-08T15:08:48;63.88;;;33.28;;
61383;SDS011;63511;49.346;8.798;2023-03-08T15:11:17;67.45;;;33.75;;
61383;SDS011;63511;49.346;8.798;2023-03-08T15:13:47;60.33;;;31.02;;
61383;SDS011;63511;49.346;8.798;2023-03-08T15:16:14;57.35;;;31.35;;
61383;SDS011;63511;49.346;8.798;2023-03-08T15:18:42;70.00;;;32.95;;
61383;SDS011;63511;49.346;8.798;2023-03-08T15:21:09;67.70;;;32.75;;
61383;SDS011;63511;49.346;8.798;2023-03-08T15:23:38;80.87;;;37.37;;
61383;SDS011;63511;49.346;8.798;2023-03-08T15:26:06;80.45;;;37.35;;
61383;SDS011;63511;49.346;8.798;2023-03-08T15:28:39;90.72;;;40.88;;
61383;SDS011;63511;49.346;8.798;2023-03-08T15:31:07;90.07;;;41.67;;
61383;SDS011;63511;49.346;8.798;2023-03-08T15:33:36;89.85;;;43.75;;
61383;SDS011;63511;49.346;8.798;2023-03-08T15:36:08;94.30;;;41.70;;
61383;SDS011;63511;49.346;8.798;2023-03-08T15:38:41;83.25;;;40.13;;
61383;SDS011;63511;49.346;8.798;2023-03-08T15:41:15;82.68;;;38.67;;
61383;SDS011;63511;49.346;8.798;2023-03-08T15:43:45;61.97;;;33.17;;
61383;SDS011;63511;49.346;8.798;2023-03-08T15:46:17;70.22;;;35.53;;
61383;SDS011;63511;49.346;8.798;2023-03-08T15:48:45;68.50;;;34.38;;
61383;SDS011;63511;49.346;8.798;2023-03-08T15:51:17;68.32;;;33.45;;
61383;SDS011;63511;49.346;8.798;2023-03-08T15:53:50;72.45;;;35.55;;
61383;SDS011;63511;49.346;8.798;2023-03-08T15:56:19;72.88;;;36.78;;
61383;SDS011;63511;49.346;8.798;2023-03-08T15:58:49;72.45;;;38.72;;
61383;SDS011;63511;49.346;8.798;2023-03-08T16:01:21;77.10;;;37.83;;
61383;SDS011;63511;49.346;8.798;2023-03-08T16:03:51;68.25;;;35.03;;
61383;SDS011;63511;49.346;8.798;2023-03-08T16:06:20;69.75;;;32.63;;
61383;SDS011;63511;49.346;8.798;2023-03-08T16:08:50;73.50;;;36.00;;
61383;SDS011;63511;49.346;8.798;2023-03-08T16:11:18;68.70;;;34.83;;
61383;SDS011;63511;49.346;8.798;2023-03-08T16:13:46;64.43;;;31.00;;
61383;SDS011;63511;49.346;8.798;2023-03-08T16:16:14;74.72;;;36.70;;
61383;SDS011;63511;49.346;8.798;2023-03-08T16:18:41;58.72;;;30.95;;